createdAt,value
2018-05-13T00:02:09.415Z,21.33
2018-05-13T00:04:37.656Z,22.67
2018-05-13T00:07:05.465Z,22.00
2018-05-13T00:09:33.714Z,22.13
2018-05-13T00:12:01.273Z,23.03
2018-05-13T00:14:28.997Z,22.10
2018-05-13T00:16:57.004Z,22.53
2018-05-13T00:19:24.491Z,22.27
2018-05-13T00:21:52.317Z,21.90
2018-05-13T00:24:19.796Z,26.07
2018-05-13T00:26:48.066Z,22.33
2018-05-13T00:29:16.630Z,24.43
2018-05-13T00:31:44.125Z,23.93
2018-05-13T00:34:11.607Z,22.47
2018-05-13T00:36:39.437Z,23.70
2018-05-13T00:39:06.947Z,22.50
2018-05-13T00:41:34.432Z,21.93
2018-05-13T00:44:02.207Z,22.90
2018-05-13T00:46:30.458Z,23.20
2018-05-13T00:48:57.966Z,22.67
2018-05-13T00:51:25.724Z,22.27
2018-05-13T00:53:53.223Z,22.03
2018-05-13T00:56:20.713Z,22.90
2018-05-13T00:58:48.501Z,22.73
2018-05-13T01:01:15.986Z,22.27
2018-05-13T01:03:43.498Z,23.20
2018-05-13T01:06:11.770Z,23.67
2018-05-13T01:08:39.258Z,22.73
2018-05-13T01:11:06.740Z,23.30
2018-05-13T01:13:34.559Z,23.00
2018-05-13T01:16:02.820Z,22.60
2018-05-13T01:18:30.306Z,23.97
2018-05-13T01:20:58.119Z,24.57
2018-05-13T01:23:25.608Z,26.00
2018-05-13T01:25:53.852Z,23.00
2018-05-13T01:28:21.641Z,25.17
2018-05-13T01:30:49.140Z,25.30
2018-05-13T01:33:16.615Z,25.00
2018-05-13T01:35:44.411Z,25.80
2018-05-13T01:38:11.928Z,24.17
2018-05-13T01:40:39.399Z,25.17
2018-05-13T01:43:07.147Z,25.33
2018-05-13T01:45:34.637Z,26.77
2018-05-13T01:48:02.117Z,25.20
2018-05-13T01:50:30.665Z,25.37
2018-05-13T01:52:58.154Z,25.73
2018-05-13T01:55:25.648Z,25.57
2018-05-13T01:57:53.494Z,26.23
2018-05-13T02:00:21.745Z,25.37
2018-05-13T02:02:49.224Z,26.93
2018-05-13T02:05:17.772Z,27.27
2018-05-13T02:07:45.250Z,26.67
2018-05-13T02:10:12.723Z,30.03
2018-05-13T02:12:41.239Z,28.70
2018-05-13T02:15:08.731Z,27.47
2018-05-13T02:17:36.212Z,27.93
2018-05-13T02:20:04.760Z,28.30
2018-05-13T02:22:32.246Z,27.87
2018-05-13T02:25:00.500Z,28.80
2018-05-13T02:27:28.328Z,26.70
2018-05-13T02:29:55.811Z,27.53
2018-05-13T02:32:23.308Z,27.87
2018-05-13T02:34:52.006Z,28.60
2018-05-13T02:37:19.497Z,28.50
2018-05-13T02:39:46.981Z,33.10
2018-05-13T02:42:14.752Z,30.00
2018-05-13T02:44:43.022Z,29.40
2018-05-13T02:47:10.507Z,29.40
2018-05-13T02:49:39.042Z,29.67
2018-05-13T02:52:06.535Z,29.80
2018-05-13T02:54:34.819Z,30.20
2018-05-13T02:57:02.641Z,30.17
2018-05-13T02:59:30.138Z,29.40
2018-05-13T03:01:57.598Z,29.87
2018-05-13T03:04:25.457Z,29.53
2018-05-13T03:06:52.956Z,31.10
2018-05-13T03:09:20.520Z,30.03
2018-05-13T03:11:48.316Z,30.13
2018-05-13T03:14:15.794Z,31.00
2018-05-13T03:16:43.297Z,30.87
2018-05-13T03:19:11.086Z,29.03
2018-05-13T03:21:38.586Z,32.77
2018-05-13T03:24:06.123Z,31.60
2018-05-13T03:26:33.924Z,30.90
2018-05-13T03:29:01.491Z,31.07
2018-05-13T03:31:28.966Z,33.60
2018-05-13T03:33:56.762Z,31.60
2018-05-13T03:36:24.253Z,31.70
2018-05-13T03:38:52.497Z,34.03
2018-05-13T03:41:20.282Z,32.97
2018-05-13T03:43:48.999Z,31.80
2018-05-13T03:46:16.486Z,36.00
2018-05-13T03:48:43.995Z,32.63
2018-05-13T03:51:11.549Z,31.10
2018-05-13T03:53:39.048Z,33.63
2018-05-13T03:56:06.856Z,32.43
2018-05-13T03:58:34.330Z,32.10
2018-05-13T04:01:02.605Z,30.53
2018-05-13T04:03:30.878Z,32.43
2018-05-13T04:05:58.384Z,32.20
2018-05-13T04:08:47.258Z,33.63
2018-05-13T04:11:26.551Z,34.73
2018-05-13T04:14:06.170Z,31.90
2018-05-13T04:16:33.660Z,32.63
2018-05-13T04:19:01.165Z,33.20
2018-05-13T04:21:29.779Z,34.05
2018-05-13T04:23:57.278Z,33.55
2018-05-13T04:26:24.800Z,35.70
2018-05-13T04:28:52.609Z,42.90
2018-05-13T04:31:20.090Z,42.40
2018-05-13T04:33:48.349Z,45.53
2018-05-13T04:36:15.843Z,51.05
2018-05-13T04:38:43.343Z,53.30
2018-05-13T04:41:10.850Z,66.07
2018-05-13T04:43:39.381Z,59.87
2018-05-13T04:46:06.862Z,52.93
2018-05-13T04:48:34.351Z,55.37
2018-05-13T04:51:02.944Z,54.73
2018-05-13T04:53:30.464Z,57.20
2018-05-13T04:55:57.971Z,60.37
2018-05-13T04:58:25.810Z,54.93
2018-05-13T05:00:53.283Z,60.67
2018-05-13T05:03:20.775Z,64.07
2018-05-13T05:05:48.547Z,58.83
2018-05-13T05:08:16.052Z,56.50
2018-05-13T05:10:43.518Z,57.60
2018-05-13T05:13:11.338Z,60.55
2018-05-13T05:15:38.835Z,57.87
2018-05-13T05:18:06.341Z,57.20
2018-05-13T05:20:34.150Z,59.40
2018-05-13T05:23:01.662Z,52.45
2018-05-13T05:25:29.161Z,54.67
2018-05-13T05:27:57.765Z,47.72
2018-05-13T05:30:25.295Z,42.73
2018-05-13T05:32:53.554Z,42.08
2018-05-13T05:35:21.377Z,43.87
2018-05-13T05:37:48.898Z,36.88
2018-05-13T05:40:17.145Z,35.00
2018-05-13T05:42:44.654Z,35.10
2018-05-13T05:45:12.141Z,36.47
2018-05-13T05:47:39.623Z,36.00
2018-05-13T05:50:07.491Z,27.70
2018-05-13T05:52:34.982Z,31.13
2018-05-13T05:55:03.225Z,30.40
2018-05-13T05:57:31.026Z,34.22
2018-05-13T05:59:58.539Z,33.33
2018-05-13T06:02:26.035Z,36.83
2018-05-13T06:04:54.598Z,34.30
2018-05-13T06:07:22.092Z,34.00
2018-05-13T06:09:49.618Z,31.00
2018-05-13T06:12:17.961Z,33.40
2018-05-13T06:14:45.413Z,33.87
2018-05-13T06:17:13.014Z,37.73
2018-05-13T06:19:40.536Z,41.63
2018-05-13T06:22:08.015Z,35.17
2018-05-13T06:24:35.528Z,36.03
2018-05-13T06:27:03.036Z,32.93
2018-05-13T06:29:31.299Z,31.30
2018-05-13T06:31:58.859Z,30.20
2018-05-13T06:34:26.590Z,33.20
2018-05-13T06:36:54.071Z,27.90
2018-05-13T06:39:21.588Z,29.00
2018-05-13T06:41:49.370Z,30.47
2018-05-13T06:44:16.865Z,30.93
2018-05-13T06:46:45.160Z,29.10
2018-05-13T06:49:13.740Z,30.17
2018-05-13T06:51:42.030Z,29.33
2018-05-13T06:54:10.309Z,33.77
2018-05-13T06:56:39.026Z,30.40
2018-05-13T06:59:06.511Z,33.00
2018-05-13T07:01:34.020Z,35.07
2018-05-13T07:04:01.842Z,27.50
2018-05-13T07:06:31.117Z,31.10
2018-05-13T07:08:58.711Z,34.80
2018-05-13T07:11:27.291Z,37.93
2018-05-13T07:13:54.783Z,32.00
2018-05-13T07:16:22.297Z,37.60
2018-05-13T07:18:50.022Z,36.50
2018-05-13T07:21:17.508Z,31.10
2018-05-13T07:23:45.039Z,35.13
2018-05-13T07:26:13.578Z,42.50
2018-05-13T07:28:41.831Z,37.13
2018-05-13T07:31:09.318Z,45.77
2018-05-13T07:33:37.127Z,36.65
2018-05-13T07:36:04.629Z,38.28
2018-05-13T07:38:32.916Z,40.53
2018-05-13T07:41:01.431Z,45.50
2018-05-13T07:43:29.004Z,35.45
2018-05-13T07:45:56.442Z,39.08
2018-05-13T07:48:24.718Z,37.60
2018-05-13T07:50:52.273Z,47.30
2018-05-13T07:53:19.775Z,41.97
2018-05-13T07:55:47.523Z,38.30
2018-05-13T07:58:16.718Z,43.70
2018-05-13T08:00:44.312Z,41.35
2018-05-13T08:03:12.858Z,35.65
2018-05-13T08:05:40.422Z,39.80
2018-05-13T08:08:07.931Z,46.95
2018-05-13T08:10:35.747Z,38.63
2018-05-13T08:13:03.254Z,39.15
2018-05-13T08:15:30.738Z,38.15
2018-05-13T08:17:58.293Z,39.10
2018-05-13T08:20:25.946Z,30.20
2018-05-13T08:22:53.363Z,34.17
2018-05-13T08:25:21.637Z,36.63
2018-05-13T08:27:49.914Z,31.27
2018-05-13T08:30:18.207Z,34.38
2018-05-13T08:32:46.026Z,32.73
2018-05-13T08:35:13.550Z,43.63
2018-05-13T08:37:41.038Z,29.37
2018-05-13T08:40:08.609Z,30.50
2018-05-13T08:42:36.890Z,32.40
2018-05-13T08:45:04.415Z,31.67
2018-05-13T08:47:32.177Z,28.20
2018-05-13T08:49:59.664Z,30.50
2018-05-13T08:52:27.171Z,29.13
2018-05-13T08:54:54.965Z,30.93
2018-05-13T08:57:22.496Z,27.97
2018-05-13T08:59:49.991Z,28.70
2018-05-13T09:02:17.754Z,26.57
2018-05-13T09:04:45.255Z,30.13
2018-05-13T09:07:13.507Z,28.80
2018-05-13T09:09:41.016Z,31.07
2018-05-13T09:12:08.534Z,31.40
2018-05-13T09:14:36.810Z,31.30
2018-05-13T09:17:05.115Z,35.27
2018-05-13T09:19:33.367Z,29.10
2018-05-13T09:22:01.622Z,37.50
2018-05-13T09:24:29.126Z,35.17
2018-05-13T09:26:56.617Z,34.77
2018-05-13T09:29:24.118Z,36.93
2018-05-13T09:31:52.366Z,33.83
2018-05-13T09:34:19.871Z,33.20
2018-05-13T09:36:47.362Z,34.03
2018-05-13T09:39:14.927Z,33.80
2018-05-13T09:41:42.430Z,30.47
2018-05-13T09:44:10.678Z,31.30
2018-05-13T09:46:38.186Z,33.63
2018-05-13T09:49:05.678Z,31.87
2018-05-13T09:51:33.153Z,35.60
2018-05-13T09:54:00.654Z,33.37
2018-05-13T09:56:28.154Z,36.73
2018-05-13T09:58:55.702Z,35.80
2018-05-13T10:01:23.482Z,35.93
2018-05-13T10:03:51.007Z,39.17
2018-05-13T10:06:18.495Z,37.33
2018-05-13T10:08:46.026Z,36.00
2018-05-13T10:11:13.512Z,42.27
2018-05-13T10:13:40.991Z,32.03
2018-05-13T10:16:08.510Z,32.30
2018-05-13T10:18:36.020Z,36.30
2018-05-13T10:21:03.544Z,39.33
2018-05-13T10:23:31.030Z,36.10
2018-05-13T10:25:59.296Z,36.07
2018-05-13T10:28:27.558Z,37.20
2018-05-13T10:30:55.048Z,31.83
2018-05-13T10:33:22.583Z,32.57
2018-05-13T10:35:50.067Z,32.80
2018-05-13T10:38:17.618Z,36.20
2018-05-13T10:40:45.358Z,35.03
2018-05-13T10:43:12.866Z,34.60
2018-05-13T10:45:40.447Z,34.70
2018-05-13T10:48:07.944Z,31.00
2018-05-13T10:50:35.918Z,33.33
2018-05-13T10:53:03.438Z,29.00
2018-05-13T10:55:30.944Z,28.30
2018-05-13T10:57:59.480Z,31.07
2018-05-13T11:00:27.010Z,31.40
2018-05-13T11:02:54.542Z,24.97
2018-05-13T11:05:22.807Z,27.10
2018-05-13T11:07:51.079Z,26.70
2018-05-13T11:10:19.436Z,27.00
2018-05-13T11:12:46.899Z,32.10
2018-05-13T11:15:15.196Z,26.93
2018-05-13T11:17:42.719Z,24.73
2018-05-13T11:20:10.317Z,22.93
2018-05-13T11:22:37.789Z,29.27
2018-05-13T11:25:05.302Z,29.70
2018-05-13T11:27:32.783Z,31.33
2018-05-13T11:30:00.310Z,28.27
2018-05-13T11:32:27.847Z,27.03
2018-05-13T11:34:55.350Z,22.43
2018-05-13T11:37:22.869Z,24.97
2018-05-13T11:39:50.435Z,23.67
2018-05-13T11:42:17.878Z,23.10
2018-05-13T11:44:45.386Z,22.27
2018-05-13T11:47:13.650Z,24.50
2018-05-13T11:49:41.917Z,23.10
2018-05-13T11:52:09.462Z,20.60
2018-05-13T11:54:36.966Z,21.10
2018-05-13T11:57:05.214Z,23.03
2018-05-13T11:59:32.764Z,21.77
2018-05-13T12:02:00.271Z,20.63
2018-05-13T12:04:27.746Z,20.13
2018-05-13T12:06:55.285Z,23.60
2018-05-13T12:09:22.758Z,21.97
2018-05-13T12:11:50.267Z,20.30
2018-05-13T12:14:17.834Z,22.10
2018-05-13T12:16:46.105Z,20.17
2018-05-13T12:19:14.378Z,20.97
2018-05-13T12:21:42.298Z,19.90
2018-05-13T12:24:09.867Z,20.53
2018-05-13T12:26:37.645Z,22.37
2018-05-13T12:29:05.467Z,20.43
2018-05-13T12:31:33.166Z,19.07
2018-05-13T12:34:00.754Z,21.33
2018-05-13T12:36:28.278Z,23.77
2018-05-13T12:38:55.786Z,20.93
2018-05-13T12:41:24.053Z,22.00
2018-05-13T12:43:52.311Z,20.77
2018-05-13T12:46:19.790Z,20.07
2018-05-13T12:48:48.069Z,20.77
2018-05-13T12:51:16.678Z,23.40
2018-05-13T12:53:44.191Z,21.23
2018-05-13T12:56:12.568Z,22.23
2018-05-13T12:58:41.063Z,26.63
2018-05-13T13:01:09.342Z,25.03
2018-05-13T13:03:37.662Z,25.20
2018-05-13T13:06:05.170Z,22.73
2018-05-13T13:08:33.445Z,26.70
2018-05-13T13:11:00.941Z,22.57
2018-05-13T13:13:28.551Z,20.83
2018-05-13T13:15:56.091Z,21.30
2018-05-13T13:18:23.720Z,26.17
2018-05-13T13:20:51.257Z,24.10
2018-05-13T13:23:19.552Z,23.40
2018-05-13T13:25:47.082Z,20.53
2018-05-13T13:28:14.896Z,24.37
2018-05-13T13:30:42.480Z,22.57
2018-05-13T13:33:10.090Z,22.93
2018-05-13T13:35:37.636Z,22.30
2018-05-13T13:38:05.899Z,19.27
2018-05-13T13:40:34.260Z,28.40
2018-05-13T13:43:02.166Z,28.30
2018-05-13T13:45:29.802Z,22.03
2018-05-13T13:47:58.101Z,26.30
2018-05-13T13:50:25.866Z,24.63
2018-05-13T13:52:53.450Z,23.43
2018-05-13T13:55:20.979Z,25.57
2018-05-13T13:57:48.494Z,24.63
2018-05-13T14:00:16.045Z,29.93
2018-05-13T14:02:43.570Z,27.52
2018-05-13T14:05:11.091Z,26.67
2018-05-13T14:07:39.410Z,30.57
2018-05-13T14:10:06.940Z,24.60
2018-05-13T14:12:34.540Z,28.70
2018-05-13T14:15:02.102Z,28.17
2018-05-13T14:17:29.646Z,32.35
2018-05-13T14:19:57.248Z,27.17
2018-05-13T14:22:25.516Z,28.23
2018-05-13T14:24:53.086Z,28.92
2018-05-13T14:27:20.619Z,29.20
2018-05-13T14:29:48.098Z,31.80
2018-05-13T14:32:15.757Z,32.35
2018-05-13T14:34:43.272Z,34.23
2018-05-13T14:37:10.775Z,34.90
2018-05-13T14:39:38.298Z,34.42
2018-05-13T14:42:05.827Z,35.33
2018-05-13T14:44:33.352Z,34.10
2018-05-13T14:47:00.860Z,35.30
2018-05-13T14:49:28.399Z,38.95
2018-05-13T14:51:55.938Z,36.97
2018-05-13T14:54:24.453Z,41.63
2018-05-13T14:56:52.017Z,44.55
2018-05-13T14:59:19.585Z,41.30
2018-05-13T15:01:47.130Z,41.10
2018-05-13T15:04:14.655Z,37.70
2018-05-13T15:06:42.167Z,39.33
2018-05-13T15:09:09.652Z,41.53
2018-05-13T15:11:37.222Z,41.55
2018-05-13T15:14:04.723Z,39.03
2018-05-13T15:16:32.303Z,40.60
2018-05-13T15:19:00.101Z,37.05
2018-05-13T15:21:27.577Z,40.53
2018-05-13T15:23:55.135Z,39.80
2018-05-13T15:26:22.669Z,46.87
2018-05-13T15:28:50.183Z,47.50
2018-05-13T15:31:17.678Z,45.17
2018-05-13T15:33:45.238Z,44.65
2018-05-13T15:36:12.786Z,40.00
2018-05-13T15:38:40.418Z,48.05
2018-05-13T15:41:07.910Z,44.83
2018-05-13T15:43:35.398Z,45.47
2018-05-13T15:46:03.668Z,43.50
2018-05-13T15:48:31.186Z,46.03
2018-05-13T15:50:58.722Z,46.15
2018-05-13T15:53:26.261Z,40.22
2018-05-13T15:55:53.805Z,44.63
2018-05-13T15:58:21.348Z,48.10
2018-05-13T16:00:48.864Z,44.92
2018-05-13T16:03:16.371Z,44.13
2018-05-13T16:05:43.941Z,43.47
2018-05-13T16:08:11.454Z,43.03
2018-05-13T16:10:39.951Z,35.63
2018-05-13T16:13:07.480Z,37.05
2018-05-13T16:15:35.096Z,37.38
2018-05-13T16:18:03.009Z,33.13
2018-05-13T16:20:30.521Z,33.45
2018-05-13T16:22:58.005Z,34.10
2018-05-13T16:25:25.575Z,34.30
2018-05-13T16:27:53.096Z,41.78
2018-05-13T16:30:20.633Z,39.92
2018-05-13T16:32:48.252Z,43.00
2018-05-13T16:35:16.796Z,30.20
2018-05-13T16:37:44.348Z,34.30
2018-05-13T16:40:12.148Z,37.95
2018-05-13T16:42:39.749Z,34.80
2018-05-13T16:45:07.536Z,37.15
2018-05-13T16:47:35.064Z,35.13
2018-05-13T16:50:02.566Z,35.42
2018-05-13T16:52:30.125Z,35.97
2018-05-13T16:54:57.645Z,39.22
2018-05-13T16:57:25.302Z,38.13
2018-05-13T16:59:53.580Z,42.80
2018-05-13T17:02:21.179Z,39.80
2018-05-13T17:04:48.622Z,39.35
2018-05-13T17:07:16.923Z,41.72
2018-05-13T17:09:44.443Z,41.55
2018-05-13T17:12:12.039Z,41.30
2018-05-13T17:14:39.534Z,37.47
2018-05-13T17:17:07.123Z,40.95
2018-05-13T17:19:34.622Z,40.92
2018-05-13T17:22:02.121Z,42.28
2018-05-13T17:24:29.908Z,46.17
2018-05-13T17:26:58.197Z,39.22
2018-05-13T17:29:26.494Z,44.65
2018-05-13T17:31:54.314Z,41.70
2018-05-13T17:34:21.799Z,43.85
2018-05-13T17:36:50.055Z,40.60
2018-05-13T17:39:17.585Z,43.83
2018-05-13T17:41:45.083Z,51.72
2018-05-13T17:44:13.356Z,47.78
2018-05-13T17:46:41.179Z,46.95
2018-05-13T17:49:08.688Z,44.00
2018-05-13T17:51:36.991Z,40.75
2018-05-13T17:54:06.824Z,47.45
2018-05-13T17:56:34.358Z,47.72
2018-05-13T17:59:01.882Z,49.42
2018-05-13T18:01:29.390Z,41.90
2018-05-13T18:03:57.300Z,46.60
2018-05-13T18:06:25.075Z,43.20
2018-05-13T18:08:53.342Z,41.08
2018-05-13T18:11:20.853Z,45.38
2018-05-13T18:13:48.367Z,45.80
2018-05-13T18:16:16.632Z,43.03
2018-05-13T18:18:44.126Z,49.80
2018-05-13T18:21:11.626Z,48.40
2018-05-13T18:23:39.170Z,40.55
2018-05-13T18:26:06.709Z,44.38
2018-05-13T18:28:34.233Z,39.92
2018-05-13T18:31:01.766Z,40.80
2018-05-13T18:33:29.280Z,46.55
2018-05-13T18:35:56.774Z,50.92
2018-05-13T18:38:24.262Z,43.17
2018-05-13T18:40:51.787Z,46.37
2018-05-13T18:43:19.287Z,43.58
2018-05-13T18:45:47.550Z,44.17
2018-05-13T18:48:15.826Z,51.17
2018-05-13T18:50:43.328Z,46.08
2018-05-13T18:53:10.863Z,39.05
2018-05-13T18:55:39.235Z,45.40
2018-05-13T18:58:06.749Z,44.42
2018-05-13T19:00:34.269Z,36.28
2018-05-13T19:03:01.812Z,42.60
2018-05-13T19:05:30.074Z,40.92
2018-05-13T19:07:57.640Z,39.45
2018-05-13T19:10:25.920Z,41.67
2018-05-13T19:12:53.448Z,44.53
2018-05-13T19:15:20.964Z,37.58
2018-05-13T19:17:48.568Z,36.08
2018-05-13T19:20:16.094Z,41.58
2018-05-13T19:22:43.615Z,40.67
2018-05-13T19:25:11.106Z,42.03
2018-05-13T19:27:38.585Z,42.13
2018-05-13T19:30:06.120Z,39.08
2018-05-13T19:32:33.620Z,45.08
2018-05-13T19:35:01.166Z,44.45
2018-05-13T19:37:29.076Z,50.30
2018-05-13T19:39:56.581Z,46.17
2018-05-13T19:42:24.069Z,44.70
2018-05-13T19:44:52.388Z,44.70
2018-05-13T19:47:19.919Z,51.47
2018-05-13T19:49:47.433Z,49.90
2018-05-13T19:52:15.035Z,47.33
2018-05-13T19:54:43.318Z,51.40
2018-05-13T19:57:10.860Z,57.92
2018-05-13T19:59:38.646Z,52.88
2018-05-13T20:02:06.163Z,52.83
2018-05-13T20:04:33.638Z,50.67
2018-05-13T20:07:01.126Z,49.00
2018-05-13T20:09:28.686Z,50.10
2018-05-13T20:11:56.169Z,53.05
2018-05-13T20:14:23.687Z,49.38
2018-05-13T20:16:52.093Z,46.40
2018-05-13T20:19:19.581Z,51.80
2018-05-13T20:21:47.120Z,45.97
2018-05-13T20:24:14.800Z,43.15
2018-05-13T20:26:42.309Z,45.08
2018-05-13T20:29:09.832Z,50.47
2018-05-13T20:31:38.245Z,44.17
2018-05-13T20:34:05.761Z,44.30
2018-05-13T20:36:33.294Z,41.78
2018-05-13T20:39:00.779Z,41.33
2018-05-13T20:41:28.265Z,43.17
2018-05-13T20:43:55.768Z,41.67
2018-05-13T20:46:23.243Z,42.28
2018-05-13T20:48:50.742Z,39.53
2018-05-13T20:51:18.315Z,41.55
2018-05-13T20:53:45.782Z,41.05
2018-05-13T20:56:13.262Z,42.35
2018-05-13T20:58:40.810Z,39.97
2018-05-13T21:01:08.309Z,43.08
2018-05-13T21:03:35.790Z,42.42
2018-05-13T21:06:03.307Z,40.50
2018-05-13T21:08:30.787Z,43.63
2018-05-13T21:10:59.118Z,51.08
2018-05-13T21:13:26.894Z,47.08
2018-05-13T21:15:54.408Z,46.53
2018-05-13T21:18:22.109Z,50.05
2018-05-13T21:20:49.679Z,46.10
2018-05-13T21:23:17.222Z,48.22
2018-05-13T21:28:17.486Z,40.30
2018-05-13T21:30:44.978Z,40.22
2018-05-13T21:33:12.510Z,45.53
2018-05-13T21:35:52.990Z,45.28
2018-05-13T21:38:23.395Z,48.08
2018-05-13T21:40:52.829Z,44.45
2018-05-13T21:43:33.117Z,42.30
2018-05-13T21:46:05.280Z,49.75
2018-05-13T21:48:37.490Z,52.75
2018-05-13T21:51:07.098Z,48.65
2018-05-13T21:53:38.201Z,47.67
2018-05-13T21:56:05.770Z,52.17
2018-05-13T21:58:33.307Z,52.88
2018-05-13T22:01:00.814Z,50.33
2018-05-13T22:03:28.303Z,42.17
2018-05-13T22:05:55.802Z,44.17
2018-05-13T22:08:23.318Z,44.92
2018-05-13T22:10:50.809Z,49.03
2018-05-13T22:13:18.322Z,53.80
2018-05-13T22:15:46.639Z,47.80
2018-05-13T22:18:14.142Z,47.65
2018-05-13T22:20:42.418Z,50.20
2018-05-13T22:23:09.938Z,54.80
2018-05-13T22:25:37.464Z,48.20
2018-05-13T22:28:05.990Z,51.90
2018-05-13T22:30:33.493Z,51.37
2018-05-13T22:33:01.740Z,52.25
2018-05-13T22:35:29.561Z,45.72
2018-05-13T22:37:57.038Z,50.55
2018-05-13T22:40:24.517Z,49.58
2018-05-13T22:42:52.338Z,52.97
2018-05-13T22:45:19.811Z,53.50
2018-05-13T22:47:47.315Z,50.53
2018-05-13T22:50:15.926Z,53.13
2018-05-13T22:52:43.417Z,54.72
2018-05-13T22:55:10.891Z,53.22
2018-05-13T22:57:38.638Z,52.10
2018-05-13T23:00:06.117Z,48.80
2018-05-13T23:02:33.608Z,48.80
2018-05-13T23:05:01.387Z,48.65
2018-05-13T23:07:28.882Z,50.47
2018-05-13T23:09:58.079Z,49.58
2018-05-13T23:12:25.822Z,55.12
2018-05-13T23:14:53.299Z,44.63
2018-05-13T23:17:20.806Z,52.05
2018-05-13T23:19:48.629Z,49.03
2018-05-13T23:22:27.849Z,51.30
2018-05-13T23:24:55.340Z,47.22
2018-05-13T23:27:23.600Z,54.38
2018-05-13T23:29:51.979Z,51.42
2018-05-13T23:32:19.790Z,55.63
2018-05-13T23:34:47.251Z,51.08
2018-05-13T23:37:14.734Z,52.88
2018-05-13T23:39:42.525Z,54.58
2018-05-13T23:42:10.061Z,55.17
2018-05-13T23:44:37.602Z,59.42
2018-05-13T23:47:05.418Z,57.92
2018-05-13T23:49:33.725Z,59.35
2018-05-13T23:52:01.203Z,64.78
2018-05-13T23:54:28.971Z,65.22
2018-05-13T23:56:56.444Z,66.30
2018-05-13T23:59:23.937Z,68.80
